Orto / Ocaso: 06:02 / 18:18 UTC (Datos para LEAX 19-09-2019)

[fuente: ADDS]

METAR:


LEMG 190000Z 09003KT CAVOK 22/21 Q1016 NOSIG =
TAF LEMG 182300Z 1900/1924 VRB02KT CAVOK TX29/1914Z TN19/1906Z TEMPO 1903/1908 28006KT BECMG 1909/1911 13009KT LEGR 190000Z AUTO 00000KT 9999 NCD 18/14 Q1018 =
TAF LEGR 182000Z 1821/1921 23006KT 9999 FEW060 TX30/1915Z TN14/1906Z LEZL 190000Z AUTO 22004KT 170V250 CAVOK 20/17 Q1016 =
TAF LEZL 182000Z 1821/1921 22007KT CAVOK TX30/1915Z TN18/1905Z PROB40 TEMPO 1904/1908 4000 BR BKN010 LEAM 190000Z AUTO 06003KT 020V080 CAVOK 23/21 Q1016 =
TAF LEAM 182000Z 1821/1921 VRB02KT 9999 FEW025 TX28/1912Z TN21/1905Z PROB30 TEMPO 1905/1910 BKN012 PROB40 TEMPO 1911/1915 19010KT LEBA 190000Z AUTO 24004KT 210V270 9999 NCD 20/15 Q1016 =
TAF LEBA 181700Z 1818/1903 25006KT CAVOK LEJR 190000Z AUTO 07001KT 9999 NCD 16/15 Q1017 =
TAF LEJR 182300Z 1900/1924 16004KT CAVOK TX30/1914Z TN14/1906Z PROB40 TEMPO 1903/1908 3000 BR BKN008 BECMG 1913/1915 26010KT BECMG 1918/1920 20005KT GEML 190000Z AUTO VRB01KT CAVOK 21/18 Q1017 =
TAF GEML 182000Z 1821/1921 VRB03KT 9999 FEW012 TX26/1912Z TN20/1906Z LXGB 182350Z AUTO 28013KT 9999 // NCD 21/17 Q1016 =
TAF LXGB 181631Z 1818/1822 19010KT 9999 FEW040 PROB40 TEMPO 1818/1819 19014KT 520001 BECMG 1819/1821 27014KT

TAFOR:


TAF LEMG 182300Z 1900/1924 VRB02KT CAVOK TX29/1914Z TN19/1906Z TEMPO 1903/1908 28006KT BECMG 1909/1911 13009KT =
TAF LEGR 182000Z 1821/1921 23006KT 9999 FEW060 TX30/1915Z TN14/1906Z =
TAF LEZL 182000Z 1821/1921 22007KT CAVOK TX30/1915Z TN18/1905Z PROB40 TEMPO 1904/1908 4000 BR BKN010 =
TAF LEAM 182000Z 1821/1921 VRB02KT 9999 FEW025 TX28/1912Z TN21/1905Z PROB30 TEMPO 1905/1910 BKN012 PROB40 TEMPO 1911/1915 19010KT =
TAF LEBA 181700Z 1818/1903 25006KT CAVOK =
TAF LEJR 182300Z 1900/1924 16004KT CAVOK TX30/1914Z TN14/1906Z PROB40 TEMPO 1903/1908 3000 BR BKN008 BECMG 1913/1915 26010KT BECMG 1918/1920 20005KT =
TAF GEML 182000Z 1821/1921 VRB03KT 9999 FEW012 TX26/1912Z TN20/1906Z =
TAF LXGB 181631Z 1818/1822 19010KT 9999 FEW040 PROB40 TEMPO 1818/1819 19014KT 520001 BECMG 1819/1821 27014KT =

Recuerde que, aunque regularmente actualizada, la información meteorológica aquí presentada no debe ser utilizada para la planificación de vuelos. Si lo desea, puede consultar la información meteorológica adecuada, tanto de aeródromos como en ruta, por las vías oficialmente establecidas en la legislación -> AQUí

Utilizamos "cookies" propias y de terceros para analizar nuestros servicios, medir las audiencias, personalizar el contenido que ofrecemos y mostrar información adaptada a sus intereses mediante la obtención de los datos necesarios para perfilar sus hábitos de navegación e inferir grupos de interés, siempre de modo anónimo. Si continúa utilizando el sitio web AEROCLUBMALAGA.COM, significa que acepta sus términos y condiciones y el uso de "cookies" al utilizar el sitio web y nuestros servicios. Asimismo, podemos utilizar fuentes de datos externas para elaborar estos grupos de interés, así compartir los análisis de navegación y los grupos de interés inferidos con terceros con el objetivo de personalizar los contenidos. Para obtener más información sobre las cookies que utilizamos y cómo eliminarlas, consulte nuestra política de privacidad.

Acepto las cookies de esta página web.
EU Cookie Directive plugin by www.channeldigital.co.uk